Time;durP1;ratioP1;P1;durP2;ratioP2;P2;SDS_P1;SDS_P2;PMS_P1;PMS_P2;Temp;Humidity;BMP_temperature;BMP_pressure;BME280_temperature;BME280_humidity;BME280_pressure;Samples;Min_cycle;Max_cycle;Signal;HPM_P1;HPM_P2
2023/09/21 00:01:20;;;;;;;3.60;1.42;;;;;;;-146.27;61.66;80594.75;5043831;28;20029;-71
2023/09/21 00:03:47;;;;;;;2.95;1.67;;;;;;;-146.27;61.57;80596.75;5046022;28;20406;-69
2023/09/21 00:06:17;;;;;;;3.35;1.40;;;;;;;-146.27;61.05;80556.59;5049117;28;20030;-69
2023/09/21 00:08:45;;;;;;;3.55;1.48;;;;;;;-146.27;60.65;80532.50;5040151;28;20021;-69
2023/09/21 00:11:10;;;;;;;5.70;1.70;;;;;;;-146.27;62.06;80648.97;5046168;28;20047;-69
2023/09/21 00:13:39;;;;;;;4.53;1.50;;;;;;;-146.27;62.04;80659.00;5043313;28;20568;-70
2023/09/21 00:16:09;;;;;;;3.72;1.73;;;;;;;-146.27;61.33;80558.59;5047607;28;20116;-70
2023/09/21 00:18:34;;;;;;;6.05;1.88;;;;;;;-146.27;62.29;80665.03;5038931;28;20041;-70
2023/09/21 00:21:02;;;;;;;9.80;2.08;;;;;;;-146.27;62.34;80616.84;5043696;28;20074;-67
2023/09/21 00:23:27;;;;;;;3.90;1.75;;;;;;;-146.27;62.26;80661.00;5047713;28;20373;-67
2023/09/21 00:25:57;;;;;;;3.25;1.35;;;;;;;-146.27;61.74;80570.66;5041818;28;20156;-70
2023/09/21 00:28:27;;;;;;;4.20;2.35;;;;;;;-146.27;61.79;80580.69;5046099;28;20104;-67
2023/09/21 00:30:54;;;;;;;7.55;1.77;;;;;;;-146.27;61.70;80568.63;5039574;28;20044;-68
2023/09/21 00:33:20;;;;;;;4.03;1.65;;;;;;;-146.27;62.46;80667.03;5041200;28;20025;-68
2023/09/21 00:35:46;;;;;;;5.25;1.65;;;;;;;-146.27;61.80;80588.72;5048286;28;20396;-68
2023/09/21 00:38:14;;;;;;;2.95;1.55;;;;;;;-146.27;61.48;80564.63;5040013;28;20031;-68
2023/09/21 00:40:40;;;;;;;3.60;1.83;;;;;;;-146.27;61.34;80542.53;5038725;28;20111;-68
2023/09/21 00:43:07;;;;;;;4.55;1.80;;;;;;;-146.27;61.68;80600.75;5039541;28;20108;-67
2023/09/21 00:45:37;;;;;;;3.65;1.85;;;;;;;-146.27;61.45;80518.44;5048021;28;20024;-69
2023/09/21 00:48:07;;;;;;;4.88;2.05;;;;;;;-146.27;62.23;80634.91;5038114;28;20037;-69
2023/09/21 00:50:33;;;;;;;4.82;1.67;;;;;;;-146.27;62.62;80646.94;5037560;28;20029;-68
2023/09/21 00:52:58;;;;;;;3.58;1.42;;;;;;;-146.27;61.71;80580.69;5035753;28;20102;-68
2023/09/21 00:55:30;;;;;;;10.18;2.13;;;;;;;-146.27;62.26;80584.69;5037458;28;20026;-69
2023/09/21 00:58:02;;;;;;;5.90;1.60;;;;;;;-146.27;62.81;80693.13;5048183;28;20393;-69
2023/09/21 01:00:29;;;;;;;4.93;1.63;;;;;;;-146.27;62.33;80596.75;5049216;28;20044;-68
2023/09/21 01:02:54;;;;;;;2.47;1.48;;;;;;;-146.27;62.82;80657.00;5041974;28;20040;-68
2023/09/21 01:05:21;;;;;;;6.85;1.67;;;;;;;-146.27;63.19;80693.13;5042790;28;20025;-68
2023/09/21 01:07:50;;;;;;;4.45;1.70;;;;;;;-146.27;63.24;80673.06;5040730;28;20712;-68
2023/09/21 01:10:21;;;;;;;5.80;1.90;;;;;;;-146.27;63.83;80757.38;5036821;28;20441;-69
2023/09/21 01:12:51;;;;;;;7.00;1.63;;;;;;;-146.27;63.87;80713.22;5046057;28;20021;-68
2023/09/21 01:15:17;;;;;;;4.50;1.58;;;;;;;-146.27;63.73;80701.16;5044929;28;20068;-69
2023/09/21 01:17:47;;;;;;;6.47;2.10;;;;;;;-146.27;63.57;80644.94;5044900;28;20032;-68
2023/09/21 01:20:23;;;;;;;3.65;1.65;;;;;;;-146.27;63.41;80657.00;5038032;28;20086;-68
2023/09/21 01:23:11;;;;;;;4.38;1.75;;;;;;;-146.27;63.61;80636.91;5035780;28;20080;-68
2023/09/21 01:25:41;;;;;;;6.43;1.80;;;;;;;-146.27;63.55;80652.97;5042922;28;20033;-68
2023/09/21 01:28:16;;;;;;;7.32;1.65;;;;;;;-146.27;63.65;80665.03;5045698;28;20031;-68
2023/09/21 01:30:43;;;;;;;7.50;1.98;;;;;;;-146.27;62.66;80568.63;5038486;28;20033;-67
2023/09/21 01:33:09;;;;;;;6.10;1.50;;;;;;;-146.27;62.29;80494.34;5046673;28;20040;-68
2023/09/21 01:35:38;;;;;;;2.38;1.58;;;;;;;-146.27;62.07;80504.38;5047332;28;20033;-68
2023/09/21 01:38:08;;;;;;;3.25;1.70;;;;;;;-146.27;62.71;80556.59;5045934;28;20033;-68
2023/09/21 01:40:35;;;;;;;4.95;1.30;;;;;;;-146.27;62.98;80564.63;5037958;28;20422;-68
2023/09/21 01:43:08;;;;;;;5.93;1.77;;;;;;;-146.27;62.28;80488.31;5047400;28;20086;-68
2023/09/21 01:45:39;;;;;;;5.78;1.80;;;;;;;-146.27;62.81;80568.63;5045422;28;20040;-69
2023/09/21 01:48:08;;;;;;;3.88;1.75;;;;;;;-146.27;63.24;80596.75;5045409;28;20389;-69
2023/09/21 01:50:48;;;;;;;4.00;1.88;;;;;;;-146.27;62.53;80502.38;5034739;28;20481;-69
2023/09/21 01:53:19;;;;;;;3.40;1.42;;;;;;;-146.27;62.51;80478.28;5045571;28;20439;-69
2023/09/21 01:55:47;;;;;;;6.53;1.70;;;;;;;-146.27;63.07;80584.69;5042311;28;20029;-69
2023/09/21 01:58:13;;;;;;;9.88;1.70;;;;;;;-146.27;62.80;80520.44;5046816;28;20071;-69
2023/09/21 02:00:40;;;;;;;2.88;1.63;;;;;;;-146.27;63.40;80622.84;5034935;28;20083;-69
2023/09/21 02:03:08;;;;;;;3.88;1.70;;;;;;;-146.27;63.51;80634.91;5044629;28;20099;-69
2023/09/21 02:05:35;;;;;;;2.65;1.60;;;;;;;-146.27;62.99;80530.50;5044279;28;20061;-69
2023/09/21 02:08:04;;;;;;;2.67;1.52;;;;;;;-146.27;63.79;80592.72;5042998;28;20083;-68
2023/09/21 02:10:30;;;;;;;3.03;1.67;;;;;;;-146.27;64.37;80602.78;5051208;28;20047;-70
2023/09/21 02:12:58;;;;;;;5.93;1.65;;;;;;;-146.27;63.47;80504.38;5041545;28;20499;-69
2023/09/21 02:15:25;;;;;;;5.78;1.90;;;;;;;-146.27;65.17;80456.19;5048634;28;20108;-69
2023/09/21 02:17:55;;;;;;;4.00;1.60;;;;;;;-146.27;68.42;80552.56;5039670;28;20482;-69
2023/09/21 02:20:25;;;;;;;3.70;1.92;;;;;;;-146.27;70.19;80606.78;5045040;28;20334;-68
2023/09/21 02:22:52;;;;;;;6.68;1.90;;;;;;;-146.27;72.85;80797.53;5043688;28;20033;-69
2023/09/21 02:25:19;;;;;;;2.58;1.63;;;;;;;-146.27;75.56;80897.94;5043200;28;20154;-69
2023/09/21 02:27:49;;;;;;;3.95;1.75;;;;;;;-146.27;75.33;80970.25;5047379;28;20145;-68
2023/09/21 02:30:21;;;;;;;4.30;1.98;;;;;;;-146.27;75.69;80938.09;5042645;28;20021;-69
2023/09/21 02:32:51;;;;;;;5.18;1.77;;;;;;;-146.27;75.36;80881.88;5042264;28;20025;-69
2023/09/21 02:35:22;;;;;;;6.93;2.05;;;;;;;-146.27;74.80;80873.84;5046925;28;20033;-69
2023/09/21 02:37:50;;;;;;;2.40;1.60;;;;;;;-146.27;74.93;80881.88;5040822;28;20026;-69
2023/09/21 02:40:17;;;;;;;6.45;1.85;;;;;;;-146.27;75.58;80881.88;5045134;28;20025;-69
2023/09/21 02:42:50;;;;;;;5.22;1.80;;;;;;;-146.27;77.25;81030.47;5049821;28;20404;-69
2023/09/21 02:45:18;;;;;;;4.20;1.80;;;;;;;-146.27;77.18;80956.19;5052060;28;20045;-69
2023/09/21 02:47:45;;;;;;;9.50;2.20;;;;;;;-146.27;77.42;81016.44;5046449;28;20029;-70
2023/09/21 02:50:14;;;;;;;15.73;2.45;;;;;;;-146.27;77.70;81008.41;5050594;28;20035;-68
2023/09/21 02:52:54;;;;;;;6.43;2.03;;;;;;;-146.27;77.47;81000.34;5043233;28;20444;-68
2023/09/21 02:55:20;;;;;;;4.60;1.77;;;;;;;-146.27;77.61;80968.22;5048750;28;20029;-69
2023/09/21 02:58:10;;;;;;;4.32;2.00;;;;;;;-146.27;77.89;81026.47;5038077;28;20044;-69
2023/09/21 03:00:42;;;;;;;3.53;1.70;;;;;;;-146.27;77.67;81004.38;5045904;28;20017;-69
2023/09/21 03:03:12;;;;;;;5.90;1.80;;;;;;;-146.27;79.83;81155.00;5051452;28;20262;-67
2023/09/21 03:05:38;;;;;;;3.67;1.65;;;;;;;-146.27;78.63;81124.88;5047817;28;20091;-68
2023/09/21 03:08:05;;;;;;;4.60;1.55;;;;;;;-146.27;78.74;81159.00;5040573;28;20427;-70
2023/09/21 03:10:31;;;;;;;3.45;1.42;;;;;;;-146.27;79.23;81315.66;5052081;28;20029;-66
2023/09/21 03:12:57;;;;;;;3.65;0.98;;;;;;;-146.27;78.65;81295.56;5053121;28;20497;-67
2023/09/21 03:15:22;;;;;;;1.65;1.05;;;;;;;-146.27;78.49;81329.72;5050340;28;20055;-68
2023/09/21 03:17:55;;;;;;;2.60;0.70;;;;;;;-146.27;79.20;81369.88;5045178;28;20378;-66
2023/09/21 03:22:54;;;;;;;1.33;1.02;;;;;;;-146.27;78.91;81303.59;5043264;28;20091;-67
2023/09/21 03:25:27;;;;;;;2.65;1.20;;;;;;;-146.27;79.37;81379.91;5040075;28;20033;-68
2023/09/21 03:27:53;;;;;;;3.38;1.00;;;;;;;-146.27;79.25;81317.66;5040263;28;20028;-68
2023/09/21 03:30:20;;;;;;;1.90;1.10;;;;;;;-146.27;81.11;81444.19;5038172;28;20029;-68
2023/09/21 03:32:45;;;;;;;4.00;1.52;;;;;;;-146.27;80.37;81315.66;5051981;28;20024;-68
2023/09/21 03:35:11;;;;;;;2.83;1.45;;;;;;;-146.27;79.82;81275.47;5053220;28;20040;-68
2023/09/21 03:37:46;;;;;;;2.70;1.17;;;;;;;-146.27;79.64;81291.53;5052440;28;20021;-69
2023/09/21 03:40:12;;;;;;;2.78;1.40;;;;;;;-146.27;80.36;81381.91;5047449;28;20496;-68
2023/09/21 03:42:38;;;;;;;4.65;1.77;;;;;;;-146.27;79.95;81335.72;5044104;28;20025;-68
2023/09/21 03:45:07;;;;;;;8.48;1.85;;;;;;;-146.27;79.73;81287.53;5039454;28;20037;-69
2023/09/21 03:47:33;;;;;;;3.55;1.80;;;;;;;-146.27;79.57;81265.44;5049818;28;20119;-69
2023/09/21 03:50:00;;;;;;;3.70;1.70;;;;;;;-146.27;79.02;81199.16;5051073;28;20099;-69
2023/09/21 03:52:27;;;;;;;3.28;2.00;;;;;;;-146.27;79.27;81227.28;5043637;28;20489;-69
2023/09/21 03:54:53;;;;;;;3.05;1.73;;;;;;;-146.27;78.49;81142.94;5048230;28;20044;-69
2023/09/21 03:57:18;;;;;;;4.20;2.03;;;;;;;-146.27;79.06;81197.16;5044270;28;20486;-69
2023/09/21 03:59:46;;;;;;;3.85;1.90;;;;;;;-146.27;78.75;81175.06;5049332;28;20036;-69
2023/09/21 04:02:13;;;;;;;5.07;2.70;;;;;;;-146.27;78.84;81163.03;5050317;28;20094;-69
2023/09/21 04:04:39;;;;;;;3.17;2.00;;;;;;;-146.27;79.06;81185.13;5038392;28;20087;-69
2023/09/21 04:07:05;;;;;;;2.17;1.65;;;;;;;-146.27;80.04;81229.28;5051576;28;20443;-68
2023/09/21 04:09:30;;;;;;;3.58;1.90;;;;;;;-146.27;80.67;81265.44;5047839;28;20025;-68
2023/09/21 04:11:57;;;;;;;3.30;1.77;;;;;;;-146.27;81.43;81249.38;5053828;28;20032;-68
2023/09/21 04:14:24;;;;;;;6.28;2.30;;;;;;;-146.27;82.49;81351.78;5050086;28;20028;-68
2023/09/21 04:16:50;;;;;;;4.18;1.85;;;;;;;-146.27;82.50;81339.75;5051279;28;20090;-68
2023/09/21 04:19:15;;;;;;;7.93;1.80;;;;;;;-146.27;82.20;81301.59;5040123;28;20033;-68
2023/09/21 04:21:41;;;;;;;4.07;1.95;;;;;;;-146.27;82.57;81343.75;5034234;28;20029;-68
2023/09/21 04:24:08;;;;;;;4.60;1.60;;;;;;;-146.27;82.38;81283.50;5043444;28;20037;-68
2023/09/21 04:26:33;;;;;;;5.55;2.03;;;;;;;-146.27;82.25;81267.44;5031583;28;20037;-69
2023/09/21 04:28:58;;;;;;;5.63;2.00;;;;;;;-146.27;83.19;81337.75;5036301;28;20025;-68
2023/09/21 04:31:24;;;;;;;2.47;1.73;;;;;;;-146.27;83.35;81335.72;5044501;28;20033;-68
2023/09/21 04:33:49;;;;;;;3.92;1.67;;;;;;;-146.27;83.57;81323.69;5035369;28;20025;-67
2023/09/21 04:36:14;;;;;;;3.70;1.73;;;;;;;-146.27;82.79;81257.41;5047466;28;21317;-68
2023/09/21 04:38:40;;;;;;;4.63;1.95;;;;;;;-146.27;84.69;81400.00;5048532;28;20021;-68
2023/09/21 04:41:06;;;;;;;7.25;2.47;;;;;;;-146.27;84.75;81414.06;5045908;28;20021;-68
2023/09/21 04:43:32;;;;;;;7.43;1.75;;;;;;;-146.27;84.64;81347.78;5044382;28;20495;-68
2023/09/21 04:45:59;;;;;;;5.80;1.80;;;;;;;-146.27;85.72;81438.16;5048428;28;20028;-67
2023/09/21 04:48:25;;;;;;;5.05;2.15;;;;;;;-146.27;85.63;81395.97;5049210;28;20027;-68
2023/09/21 04:50:50;;;;;;;5.15;2.35;;;;;;;-146.27;85.69;81460.25;5046323;28;20461;-68
2023/09/21 04:53:15;;;;;;;5.20;2.40;;;;;;;-146.27;86.56;81548.59;5042696;28;20857;-68
2023/09/21 04:55:41;;;;;;;3.15;1.95;;;;;;;-146.27;86.94;81548.59;5041304;28;20029;-67
2023/09/21 04:58:07;;;;;;;3.55;2.20;;;;;;;-146.27;87.14;81508.44;5037880;28;20025;-68
2023/09/21 05:00:32;;;;;;;4.38;2.72;;;;;;;-146.27;86.37;81436.16;5046258;28;20082;-67
2023/09/21 05:02:57;;;;;;;4.22;2.50;;;;;;;-146.27;86.43;81424.09;5049681;28;20107;-67
2023/09/21 05:05:26;;;;;;;4.40;2.38;;;;;;;-146.27;86.78;81468.28;5043281;28;20033;-67
2023/09/21 05:07:52;;;;;;;5.82;2.70;;;;;;;-146.27;86.67;81428.09;5045772;28;20533;-67
2023/09/21 05:10:17;;;;;;;6.80;3.00;;;;;;;-146.27;86.71;81446.19;5036041;28;20237;-67
2023/09/21 05:12:43;;;;;;;5.45;2.92;;;;;;;-146.27;87.38;81464.25;5042961;28;20028;-67
2023/09/21 05:15:11;;;;;;;9.23;3.00;;;;;;;-146.27;87.56;81480.31;5043195;28;20226;-67
2023/09/21 05:17:36;;;;;;;6.25;2.95;;;;;;;-146.27;87.44;81494.38;5046828;28;20033;-67
2023/09/21 05:20:05;;;;;;;1.23;0.90;;;;;;;-146.27;86.62;81649.03;5047807;28;20036;-66
2023/09/21 05:22:30;;;;;;;2.78;0.73;;;;;;;-146.27;85.22;81691.22;5046063;28;20039;-66
2023/09/21 05:24:56;;;;;;;2.22;0.50;;;;;;;-146.27;84.12;81851.88;5047547;28;20025;-67
2023/09/21 05:27:21;;;;;;;1.05;0.65;;;;;;;-146.27;83.96;81992.50;5048435;28;20025;-67
2023/09/21 05:29:47;;;;;;;5.55;1.65;;;;;;;-146.27;84.39;81936.25;5038433;28;20135;-67
2023/09/21 05:32:13;;;;;;;9.23;1.00;;;;;;;-146.27;84.43;81986.47;5046322;28;20033;-68
2023/09/21 05:34:39;;;;;;;3.15;0.90;;;;;;;-146.27;84.45;82006.53;5054685;28;20036;-68
2023/09/21 05:37:04;;;;;;;1.83;0.80;;;;;;;-146.27;85.31;82068.81;5043676;28;20035;-67
2023/09/21 05:39:30;;;;;;;4.18;0.85;;;;;;;-146.27;85.43;82074.84;5035040;28;20663;-67
2023/09/21 05:41:57;;;;;;;2.33;0.90;;;;;;;-146.27;86.62;82044.72;5036461;28;20029;-67
2023/09/21 05:44:25;;;;;;;3.80;1.30;;;;;;;-146.27;85.99;82111.00;5047177;28;20020;-66
2023/09/21 05:46:51;;;;;;;3.35;1.00;;;;;;;-146.27;86.52;82092.91;5029594;28;20025;-67
2023/09/21 05:49:23;;;;;;;6.65;1.27;;;;;;;-146.27;86.78;82082.88;5048656;28;20484;-67
2023/09/21 05:51:52;;;;;;;4.65;1.33;;;;;;;-146.27;86.20;82092.91;5040439;28;20040;-66
2023/09/21 05:54:20;;;;;;;2.55;1.08;;;;;;;-146.27;86.70;82115.00;5044224;28;20028;-66
2023/09/21 05:56:46;;;;;;;3.83;1.25;;;;;;;-146.27;87.56;82133.09;5028786;28;20020;-67
2023/09/21 05:59:11;;;;;;;3.90;1.25;;;;;;;-146.27;86.71;82066.81;5035909;28;20505;-65
2023/09/21 06:01:37;;;;;;;7.50;1.00;;;;;;;-146.27;86.83;82082.88;5047923;28;20104;-67
2023/09/21 06:04:02;;;;;;;3.65;0.90;;;;;;;-146.27;87.26;82098.94;5049349;28;20104;-67
2023/09/21 06:06:31;;;;;;;6.22;1.13;;;;;;;-146.27;88.36;82046.72;5039459;28;20056;-68
2023/09/21 06:08:56;;;;;;;1.98;1.23;;;;;;;-146.27;88.71;82032.66;5046052;28;20389;-68
2023/09/21 06:11:24;;;;;;;1.70;1.05;;;;;;;-146.27;89.26;82010.56;5041984;28;20134;-66
2023/09/21 06:13:52;;;;;;;2.53;1.10;;;;;;;-146.27;89.32;81990.47;5041071;28;20093;-67
2023/09/21 06:16:18;;;;;;;2.38;1.40;;;;;;;-146.27;88.75;82016.59;5047026;28;20033;-67
2023/09/21 06:18:43;;;;;;;3.33;1.20;;;;;;;-146.27;87.86;82026.63;5046976;28;20044;-68
2023/09/21 06:21:09;;;;;;;4.47;1.40;;;;;;;-146.27;88.24;82010.56;5049505;28;20281;-67
2023/09/21 06:23:35;;;;;;;5.15;1.30;;;;;;;-146.27;88.48;81994.50;5060197;28;20634;-66
2023/09/21 06:26:00;;;;;;;5.45;1.33;;;;;;;-146.27;88.13;81960.34;5041742;28;20030;-67
2023/09/21 06:28:26;;;;;;;6.00;1.20;;;;;;;-146.27;88.13;82006.53;5045037;28;20032;-67
2023/09/21 06:30:52;;;;;;;9.25;1.58;;;;;;;-146.27;87.83;82034.66;5045828;28;20137;-67
2023/09/21 06:33:18;;;;;;;8.63;1.38;;;;;;;-146.27;88.76;82038.69;5049450;28;20039;-67
2023/09/21 06:35:44;;;;;;;5.13;1.92;;;;;;;-146.27;88.86;82002.53;5048039;28;20091;-68
2023/09/21 06:38:09;;;;;;;9.45;2.08;;;;;;;-146.27;88.88;81978.44;5040326;28;20028;-67
2023/09/21 06:40:36;;;;;;;7.18;2.10;;;;;;;-146.27;88.67;81982.44;5047927;28;20052;-68
2023/09/21 06:43:05;;;;;;;5.18;2.05;;;;;;;-146.27;88.62;81974.41;5041060;28;20085;-69
2023/09/21 06:45:32;;;;;;;4.28;1.90;;;;;;;-146.27;88.48;81964.38;5034040;28;20385;-68
2023/09/21 06:47:58;;;;;;;3.92;1.90;;;;;;;-146.27;88.52;81962.34;5047668;28;20029;-67
2023/09/21 06:50:23;;;;;;;9.27;1.88;;;;;;;-146.27;87.65;81978.44;5053661;28;20040;-66
2023/09/21 06:52:49;;;;;;;3.78;1.63;;;;;;;-146.27;88.02;81990.47;5049082;28;20108;-67
2023/09/21 06:55:14;;;;;;;3.85;2.17;;;;;;;-146.27;87.78;81998.50;5040580;28;20407;-68
2023/09/21 06:57:40;;;;;;;10.43;2.10;;;;;;;-146.27;88.14;82018.59;5047700;28;20120;-67
2023/09/21 07:00:09;;;;;;;9.68;2.40;;;;;;;-146.27;88.06;81988.47;5053190;28;20021;-67
2023/09/21 07:02:36;;;;;;;6.00;2.50;;;;;;;-146.27;88.62;81962.34;5052907;28;20039;-67
2023/09/21 07:05:02;;;;;;;11.27;3.15;;;;;;;-146.27;88.91;81982.44;5044180;28;20016;-66
2023/09/21 07:07:28;;;;;;;6.63;2.30;;;;;;;-146.27;88.80;81960.34;5054329;28;20024;-67
2023/09/21 07:09:54;;;;;;;7.43;2.47;;;;;;;-146.27;89.30;81926.22;5049250;28;20028;-66
2023/09/21 07:12:21;;;;;;;10.30;2.50;;;;;;;-146.27;88.92;81930.22;5054682;28;20024;-68
2023/09/21 07:14:49;;;;;;;12.70;2.65;;;;;;;-146.27;88.97;81950.31;5049168;28;20045;-68
2023/09/21 07:17:15;;;;;;;7.68;1.95;;;;;;;-146.27;88.67;81898.09;5054229;28;20047;-68
2023/09/21 07:19:41;;;;;;;6.32;1.92;;;;;;;-146.27;88.74;81946.28;5054239;28;20429;-68
2023/09/21 07:22:06;;;;;;;3.10;1.60;;;;;;;-146.27;88.56;81916.16;5049570;28;20044;-68
2023/09/21 07:24:32;;;;;;;6.38;1.95;;;;;;;-146.27;88.73;81882.00;5049459;28;20037;-69
2023/09/21 07:26:57;;;;;;;6.90;1.95;;;;;;;-146.27;88.62;81926.22;5044825;28;20032;-68
2023/09/21 07:29:24;;;;;;;4.15;1.20;;;;;;;-146.27;88.32;81914.16;5039766;28;20083;-68
2023/09/21 07:31:50;;;;;;;11.40;1.90;;;;;;;-146.27;88.60;81930.22;5051351;28;20097;-69
2023/09/21 07:34:16;;;;;;;2.63;1.60;;;;;;;-146.27;88.98;81940.25;5043716;28;20029;-69
2023/09/21 07:36:46;;;;;;;4.72;1.80;;;;;;;-146.27;88.97;81908.13;5042710;28;20029;-68
2023/09/21 07:39:12;;;;;;;8.45;2.13;;;;;;;-146.27;88.89;81918.16;5040318;28;20474;-68
2023/09/21 07:41:39;;;;;;;9.93;1.90;;;;;;;-146.27;88.23;81886.03;5051127;28;20036;-69
2023/09/21 07:44:08;;;;;;;11.00;1.65;;;;;;;-146.27;89.02;81914.16;5046584;28;20017;-68
2023/09/21 07:46:34;;;;;;;6.55;2.08;;;;;;;-146.27;89.40;81894.06;5036034;28;20376;-68
2023/09/21 07:48:59;;;;;;;7.70;2.13;;;;;;;-146.27;89.02;81882.00;5044763;28;20013;-68
2023/09/21 07:51:26;;;;;;;6.15;1.73;;;;;;;-146.27;88.71;81904.13;5049865;28;20473;-68
2023/09/21 07:53:52;;;;;;;6.40;2.03;;;;;;;-146.27;88.97;81857.91;5039082;28;20109;-67
2023/09/21 07:56:17;;;;;;;5.65;1.80;;;;;;;-146.27;88.88;81853.91;5049664;28;20158;-68
2023/09/21 07:58:42;;;;;;;8.60;1.88;;;;;;;-146.27;88.67;81861.94;5040379;28;20504;-68
2023/09/21 08:01:08;;;;;;;13.38;2.30;;;;;;;-146.27;88.72;81873.97;5043646;28;20617;-67
2023/09/21 08:03:33;;;;;;;7.57;1.60;;;;;;;-146.27;88.58;81861.94;5051731;28;20056;-67
2023/09/21 08:06:01;;;;;;;6.55;1.33;;;;;;;-146.27;88.43;81843.84;5046666;28;20021;-67
2023/09/21 08:08:27;;;;;;;5.38;1.95;;;;;;;-146.27;87.81;81884.03;5039324;28;20025;-67
2023/09/21 08:10:53;;;;;;;11.35;1.48;;;;;;;-146.27;87.92;81890.06;5051181;28;20025;-68
2023/09/21 08:13:25;;;;;;;2.50;1.23;;;;;;;-146.27;88.10;81847.88;5040849;28;20108;-69
2023/09/21 08:15:50;;;;;;;4.80;1.40;;;;;;;-146.27;88.73;81876.00;5045075;28;20620;-68
2023/09/21 08:18:16;;;;;;;6.43;1.52;;;;;;;-146.27;88.32;81898.09;5050443;28;20052;-67
2023/09/21 08:20:41;;;;;;;4.90;1.33;;;;;;;-146.27;87.52;81902.09;5048583;28;20021;-67
2023/09/21 08:23:08;;;;;;;6.38;1.40;;;;;;;-146.27;88.35;81847.88;5032402;28;20040;-67
2023/09/21 08:25:35;;;;;;;9.50;1.63;;;;;;;-146.27;88.82;81865.94;5031655;28;20021;-67
2023/09/21 08:28:05;;;;;;;5.40;1.70;;;;;;;-146.27;88.62;81873.97;5045711;28;20389;-67
2023/09/21 08:30:31;;;;;;;7.53;1.95;;;;;;;-146.27;88.73;81851.88;5031046;28;20025;-67
2023/09/21 08:32:57;;;;;;;8.10;1.45;;;;;;;-146.27;88.58;81809.72;5042023;28;20029;-68
2023/09/21 08:35:23;;;;;;;10.07;1.50;;;;;;;-146.27;88.26;81831.81;5037668;28;20023;-67
2023/09/21 08:37:50;;;;;;;9.38;1.58;;;;;;;-146.27;88.26;81803.69;5046057;28;20044;-67
2023/09/21 08:40:16;;;;;;;9.98;1.80;;;;;;;-146.27;87.79;81813.72;5049122;28;20025;-67
2023/09/21 08:42:44;;;;;;;6.38;1.40;;;;;;;-146.27;87.75;81847.88;5046315;28;20060;-68
2023/09/21 08:45:11;;;;;;;7.38;1.83;;;;;;;-146.27;88.40;81873.97;5035012;28;20029;-68
2023/09/21 08:47:38;;;;;;;4.78;1.90;;;;;;;-146.27;88.45;81849.88;5042603;28;20029;-68
2023/09/21 08:50:04;;;;;;;5.97;1.40;;;;;;;-146.27;88.32;81873.97;5041480;28;20048;-67
2023/09/21 08:52:33;;;;;;;11.20;1.60;;;;;;;-146.27;88.12;81783.59;5044926;28;20474;-67
2023/09/21 08:54:59;;;;;;;4.55;1.80;;;;;;;-146.27;88.02;81815.72;5033095;28;20090;-68
2023/09/21 08:57:25;;;;;;;7.00;1.50;;;;;;;-146.27;88.18;81857.91;5050351;28;20072;-67
2023/09/21 08:59:58;;;;;;;6.05;1.33;;;;;;;-146.27;88.05;81845.88;5051370;28;20040;-67
2023/09/21 09:02:24;;;;;;;;;;;;;;;-146.27;87.70;81833.81;5035227;28;20054;-66
2023/09/21 09:04:50;;;;;;;8.50;1.23;;;;;;;-146.27;87.86;81873.97;5047553;28;19913;-67
2023/09/21 09:07:18;;;;;;;5.78;1.25;;;;;;;-146.27;87.65;81833.81;5045583;28;20378;-69
2023/09/21 09:09:45;;;;;;;4.07;1.40;;;;;;;-146.27;88.16;81841.84;5072330;28;20025;-68
2023/09/21 09:12:21;;;;;;;10.27;1.65;;;;;;;-146.27;88.62;81873.97;5034383;28;20028;-69
2023/09/21 09:14:47;;;;;;;7.10;1.70;;;;;;;-146.27;88.29;81894.06;5034231;28;20167;-68
2023/09/21 09:17:14;;;;;;;6.63;1.67;;;;;;;-146.27;88.11;81837.81;5032147;28;20033;-67
2023/09/21 09:19:39;;;;;;;8.93;2.00;;;;;;;-146.27;87.81;81849.88;5031201;28;20018;-67
2023/09/21 09:22:05;;;;;;;4.68;1.88;;;;;;;-146.27;87.52;81861.94;5030823;28;20048;-67
2023/09/21 09:24:31;;;;;;;6.95;2.25;;;;;;;-146.27;87.98;81882.00;5062088;28;20021;-67
2023/09/21 09:26:57;;;;;;;6.28;2.00;;;;;;;-146.27;87.62;81942.28;5029165;28;20037;-67
2023/09/21 09:29:24;;;;;;;6.93;2.10;;;;;;;-146.27;88.05;81928.22;5030450;28;20021;-68
2023/09/21 09:31:49;;;;;;;4.57;1.73;;;;;;;-146.27;88.21;81878.00;5042566;28;20412;-66
2023/09/21 09:34:17;;;;;;;6.90;1.90;;;;;;;-146.27;88.24;81894.06;5038357;28;20013;-68
2023/09/21 09:36:52;;;;;;;5.25;1.92;;;;;;;-146.27;88.62;81918.16;5030054;28;20061;-67
2023/09/21 09:39:19;;;;;;;5.57;2.17;;;;;;;-146.27;89.06;81894.06;5039523;28;20499;-65
2023/09/21 09:41:49;;;;;;;6.18;2.10;;;;;;;-146.27;88.77;81853.91;5048544;28;20021;-67
2023/09/21 09:44:22;;;;;;;8.20;2.08;;;;;;;-146.27;88.63;81851.88;5030350;28;20037;-67
2023/09/21 09:46:49;;;;;;;6.87;2.27;;;;;;;-146.27;88.49;81873.97;5037483;28;20024;-66
2023/09/21 09:49:16;;;;;;;6.88;2.20;;;;;;;-146.27;88.72;81869.97;5032677;28;20033;-67
2023/09/21 09:51:44;;;;;;;10.05;2.05;;;;;;;-146.27;88.37;81873.97;5033845;28;20543;-67
2023/09/21 09:54:11;;;;;;;4.93;2.30;;;;;;;-146.27;88.49;81876.00;5033516;28;20022;-67
2023/09/21 09:56:44;;;;;;;7.57;2.40;;;;;;;-146.27;88.59;81851.88;5030367;28;20099;-68
2023/09/21 09:59:11;;;;;;;;;;;;;;;-146.27;88.63;81785.59;5038968;28;20473;-67
2023/09/21 10:01:38;;;;;;;5.97;2.15;;;;;;;-146.27;88.18;81871.97;5047576;28;19915;-68
2023/09/21 10:04:06;;;;;;;6.50;2.13;;;;;;;-146.27;88.03;81841.84;5048775;28;20029;-67
2023/09/21 10:06:35;;;;;;;7.10;2.08;;;;;;;-146.27;88.56;81809.72;5039400;28;20079;-67
2023/09/21 10:09:02;;;;;;;6.07;2.05;;;;;;;-146.27;88.48;81876.00;5040345;28;20099;-68
2023/09/21 10:11:29;;;;;;;10.35;2.47;;;;;;;-146.27;88.55;81938.25;5039247;28;20025;-68
2023/09/21 10:13:56;;;;;;;6.85;2.30;;;;;;;-146.27;88.49;81861.94;5043747;28;20036;-67
2023/09/21 10:16:24;;;;;;;5.70;2.28;;;;;;;-146.27;88.43;81869.97;5047805;28;20549;-68
2023/09/21 10:18:57;;;;;;;6.40;2.30;;;;;;;-146.27;88.56;81853.91;5060833;28;20124;-66
2023/09/21 10:21:23;;;;;;;7.47;3.00;;;;;;;-146.27;88.38;81884.03;5054729;28;20032;-68
2023/09/21 10:24:18;;;;;;;10.88;2.60;;;;;;;-146.27;88.43;81845.88;5042939;28;20449;-67
2023/09/21 10:26:51;;;;;;;8.15;2.53;;;;;;;-146.27;88.85;81878.00;5051718;28;20041;-67
2023/09/21 10:29:32;;;;;;;10.52;2.30;;;;;;;-146.27;88.62;81831.81;5051294;28;20472;-67
2023/09/21 10:32:01;;;;;;;3.85;1.60;;;;;;;-146.27;88.67;81853.91;5048018;28;20029;-67
2023/09/21 10:34:26;;;;;;;4.60;2.20;;;;;;;-146.27;88.94;81894.06;5041943;28;20026;-66
2023/09/21 10:37:07;;;;;;;11.38;3.13;;;;;;;-146.27;89.24;81815.72;5045176;28;20040;-68
2023/09/21 10:39:33;;;;;;;5.65;2.25;;;;;;;-146.27;89.18;81873.97;5045321;28;20052;-66
2023/09/21 10:42:04;;;;;;;6.72;2.42;;;;;;;-146.27;89.16;81859.94;5052210;28;20121;-68
2023/09/21 10:44:59;;;;;;;10.52;2.47;;;;;;;-146.27;89.14;81849.88;5042626;28;20025;-67
2023/09/21 10:47:36;;;;;;;4.40;1.83;;;;;;;-146.27;89.01;81819.75;5035731;28;20512;-68
2023/09/21 10:50:20;;;;;;;4.28;2.08;;;;;;;-146.27;88.77;81859.94;5053867;28;20021;-67
2023/09/21 10:52:51;;;;;;;7.97;2.35;;;;;;;-146.27;88.78;81847.88;5033410;28;20112;-67
2023/09/21 10:55:18;;;;;;;6.20;2.38;;;;;;;-146.27;88.74;81851.88;5033848;28;20040;-66
2023/09/21 10:57:45;;;;;;;3.80;2.00;;;;;;;-146.27;88.18;81865.94;5033118;28;20550;-67
2023/09/21 11:00:20;;;;;;;8.13;2.17;;;;;;;-146.27;89.03;81865.94;5033457;28;20071;-67
2023/09/21 11:02:46;;;;;;;8.35;2.03;;;;;;;-146.27;88.82;81829.78;5044129;28;20654;-67
2023/09/21 11:05:13;;;;;;;8.10;2.28;;;;;;;-146.27;89.10;81849.88;5042501;28;20029;-68
2023/09/21 11:07:41;;;;;;;5.10;1.90;;;;;;;-146.27;88.86;81847.88;5052336;28;20141;-68
2023/09/21 11:10:10;;;;;;;5.75;2.20;;;;;;;-146.27;88.61;81873.97;5049920;28;20024;-67
2023/09/21 11:12:38;;;;;;;4.57;1.83;;;;;;;-146.27;88.83;81873.97;5042819;28;20035;-67
2023/09/21 11:15:06;;;;;;;4.93;1.75;;;;;;;-146.27;88.72;81817.75;5052080;28;20104;-67
2023/09/21 11:17:32;;;;;;;2.58;1.65;;;;;;;-146.27;88.67;81817.75;5049034;28;20025;-67
2023/09/21 11:19:58;;;;;;;5.63;2.03;;;;;;;-146.27;88.63;81813.72;5041277;28;20496;-67
2023/09/21 11:22:24;;;;;;;5.00;1.70;;;;;;;-146.27;88.58;81861.94;5047510;28;20340;-67